createdAt,value
2023-05-14T00:02:28.296Z,11.18
2023-05-14T00:04:58.816Z,11.16
2023-05-14T00:07:30.914Z,11.14
2023-05-14T00:10:19.250Z,11.18
2023-05-14T00:12:49.957Z,11.20
2023-05-14T00:15:18.555Z,11.14
2023-05-14T00:17:48.270Z,11.13
2023-05-14T00:20:16.741Z,11.18
2023-05-14T00:22:45.581Z,11.18
2023-05-14T00:25:13.965Z,11.13
2023-05-14T00:27:42.845Z,11.10
2023-05-14T00:30:14.336Z,11.02
2023-05-14T00:32:43.128Z,10.97
2023-05-14T00:35:11.756Z,10.89
2023-05-14T00:37:40.897Z,10.85
2023-05-14T00:40:13.098Z,10.62
2023-05-14T00:42:41.792Z,10.73
2023-05-14T00:45:14.354Z,10.63
2023-05-14T00:47:43.167Z,10.57
2023-05-14T00:50:15.231Z,10.36
2023-05-14T00:52:44.879Z,10.32
2023-05-14T00:55:17.536Z,10.25
2023-05-14T00:57:46.654Z,10.22
2023-05-14T01:00:19.208Z,9.95
2023-05-14T01:02:48.180Z,10.09
2023-05-14T01:05:17.288Z,9.93
2023-05-14T01:07:55.761Z,9.83
2023-05-14T01:10:32.195Z,9.79
2023-05-14T01:13:08.003Z,9.56
2023-05-14T01:15:41.488Z,9.62
2023-05-14T01:18:12.251Z,9.58
2023-05-14T01:20:40.896Z,9.44
2023-05-14T01:23:11.621Z,9.43
2023-05-14T01:25:41.208Z,9.39
2023-05-14T01:28:19.454Z,9.34
2023-05-14T01:30:55.480Z,9.31
2023-05-14T01:33:27.751Z,9.21
2023-05-14T01:35:58.779Z,9.12
2023-05-14T01:38:30.857Z,9.11
2023-05-14T01:41:00.608Z,9.12
2023-05-14T01:43:30.243Z,9.12
2023-05-14T01:45:59.394Z,9.07
2023-05-14T01:48:30.018Z,9.05
2023-05-14T01:50:59.354Z,8.96
2023-05-14T01:53:30.258Z,8.96
2023-05-14T01:55:59.603Z,8.95
2023-05-14T01:58:28.482Z,8.95
2023-05-14T02:00:56.823Z,9.00
2023-05-14T02:03:25.850Z,9.01
2023-05-14T02:05:54.802Z,8.90
2023-05-14T02:08:23.825Z,8.97
2023-05-14T02:10:54.937Z,9.06
2023-05-14T02:13:26.768Z,9.07
2023-05-14T02:15:55.653Z,9.08
2023-05-14T02:18:24.554Z,9.09
2023-05-14T02:20:53.608Z,9.04
2023-05-14T02:23:31.059Z,9.17
2023-05-14T02:26:09.807Z,9.25
2023-05-14T02:28:38.815Z,9.31
2023-05-14T02:31:08.148Z,9.38
2023-05-14T02:33:37.153Z,9.40
2023-05-14T02:36:05.704Z,9.50
2023-05-14T02:38:34.755Z,9.54
2023-05-14T02:41:03.851Z,9.50
2023-05-14T02:43:34.884Z,9.48
2023-05-14T02:46:03.970Z,9.49
2023-05-14T02:48:32.961Z,9.49
2023-05-14T02:51:01.714Z,9.47
2023-05-14T02:53:30.609Z,9.43
2023-05-14T02:55:59.388Z,9.37
2023-05-14T02:58:28.634Z,9.40
2023-05-14T03:00:58.921Z,9.35
2023-05-14T03:03:27.896Z,9.40
2023-05-14T03:05:57.263Z,9.45
2023-05-14T03:08:32.006Z,9.44
2023-05-14T03:11:01.210Z,9.55
2023-05-14T03:13:30.123Z,9.75
2023-05-14T03:16:00.545Z,9.83
2023-05-14T03:18:30.813Z,9.93
2023-05-14T03:20:59.689Z,10.12
2023-05-14T03:23:28.408Z,10.21
2023-05-14T03:25:56.951Z,10.32
2023-05-14T03:28:28.468Z,10.43
2023-05-14T03:30:57.360Z,10.52
2023-05-14T03:33:27.652Z,10.61
2023-05-14T03:35:56.602Z,10.66
2023-05-14T03:38:25.512Z,10.69
2023-05-14T03:40:53.887Z,10.79
2023-05-14T03:43:22.778Z,10.83
2023-05-14T03:45:52.873Z,10.86
2023-05-14T03:48:22.310Z,10.88
2023-05-14T03:50:56.444Z,10.99
2023-05-14T03:53:25.521Z,11.00
2023-05-14T03:55:54.632Z,11.18
2023-05-14T03:58:23.488Z,11.21
2023-05-14T04:01:13.304Z,11.20
2023-05-14T04:03:51.528Z,11.33
2023-05-14T04:06:21.810Z,11.48
2023-05-14T04:08:50.333Z,11.54
2023-05-14T04:11:19.386Z,11.62
2023-05-14T04:13:49.564Z,11.73
2023-05-14T04:16:18.862Z,11.88
2023-05-14T04:18:59.469Z,11.99
2023-05-14T04:21:37.786Z,12.10
2023-05-14T04:24:07.214Z,12.27
2023-05-14T04:26:38.767Z,12.41
2023-05-14T04:29:07.175Z,12.49
2023-05-14T04:31:38.602Z,12.70
2023-05-14T04:34:12.093Z,12.78
2023-05-14T04:36:47.530Z,12.95
2023-05-14T04:39:28.840Z,13.05
2023-05-14T04:41:57.715Z,13.21
2023-05-14T04:44:26.875Z,13.30
2023-05-14T04:46:58.493Z,13.32
2023-05-14T04:49:27.664Z,13.33
2023-05-14T04:51:59.201Z,13.44
2023-05-14T04:54:28.641Z,13.47
2023-05-14T04:57:09.186Z,13.60
2023-05-14T04:59:37.848Z,13.64
2023-05-14T05:02:25.581Z,13.72
2023-05-14T05:04:54.112Z,13.87
2023-05-14T05:07:25.140Z,13.97
2023-05-14T05:09:54.092Z,13.95
2023-05-14T05:12:23.809Z,14.02
2023-05-14T05:14:52.354Z,14.03
2023-05-14T05:17:24.259Z,14.10
2023-05-14T05:20:00.070Z,14.09
2023-05-14T05:22:33.962Z,14.21
2023-05-14T05:25:05.574Z,14.23
2023-05-14T05:27:55.492Z,14.23
2023-05-14T05:30:25.152Z,14.25
2023-05-14T05:33:20.596Z,14.27
2023-05-14T05:36:11.136Z,14.38
2023-05-14T05:38:41.560Z,14.48
2023-05-14T05:41:12.317Z,14.56
2023-05-14T05:43:46.140Z,14.58
2023-05-14T05:46:31.927Z,14.58
2023-05-14T05:49:09.770Z,14.66
2023-05-14T05:51:41.581Z,14.66
2023-05-14T05:54:15.735Z,14.65
2023-05-14T05:56:47.304Z,14.62
2023-05-14T05:59:19.830Z,14.70
2023-05-14T06:01:53.932Z,14.71
2023-05-14T06:04:34.923Z,14.51
2023-05-14T06:07:18.903Z,15.07
2023-05-14T06:09:56.023Z,14.68
2023-05-14T06:12:33.606Z,14.70
2023-05-14T06:15:09.673Z,14.69
2023-05-14T06:17:39.054Z,14.75
2023-05-14T06:20:23.680Z,14.75
2023-05-14T06:22:56.384Z,14.82
2023-05-14T06:25:38.514Z,14.75
2023-05-14T06:28:45.266Z,14.89
2023-05-14T06:31:28.208Z,14.91
2023-05-14T06:37:03.758Z,14.81
2023-05-14T06:40:11.559Z,14.95
2023-05-14T06:43:00.803Z,15.02
2023-05-14T06:45:50.572Z,15.13
2023-05-14T06:48:35.684Z,15.11
2023-05-14T06:51:13.518Z,15.05
2023-05-14T06:53:47.495Z,15.18
2023-05-14T06:56:31.316Z,15.22
2023-05-14T06:59:46.448Z,15.20
2023-05-14T07:02:39.238Z,15.36
2023-05-14T07:06:13.897Z,15.37
2023-05-14T07:09:02.785Z,15.43
2023-05-14T07:12:01.178Z,15.60
2023-05-14T07:14:57.896Z,15.62
2023-05-14T07:17:57.335Z,15.71
2023-05-14T07:20:45.621Z,15.90
2023-05-14T07:23:29.104Z,15.86
2023-05-14T07:26:31.820Z,16.02
2023-05-14T07:29:21.228Z,16.14
2023-05-14T07:32:58.577Z,16.27
2023-05-14T07:35:48.340Z,16.32
2023-05-14T07:38:32.519Z,16.47
2023-05-14T07:41:19.928Z,16.51
2023-05-14T07:44:08.794Z,16.63
2023-05-14T07:46:43.819Z,16.67
2023-05-14T07:49:15.266Z,16.80
2023-05-14T07:52:09.788Z,16.76
2023-05-14T07:55:09.413Z,16.83
2023-05-14T08:02:34.963Z,17.02
2023-05-14T08:05:03.146Z,17.07
2023-05-14T08:10:33.475Z,17.12
2023-05-14T08:13:31.300Z,17.27
2023-05-14T08:16:08.153Z,17.34
2023-05-14T08:18:39.157Z,17.27
2023-05-14T08:21:18.781Z,17.35
2023-05-14T08:24:02.855Z,17.39
2023-05-14T08:26:33.621Z,17.52
2023-05-14T08:29:11.015Z,17.64
2023-05-14T08:32:00.247Z,17.65
2023-05-14T08:34:30.680Z,17.76
2023-05-14T08:37:01.860Z,17.74
2023-05-14T08:39:42.786Z,17.79
2023-05-14T08:42:15.041Z,17.79
2023-05-14T08:44:52.952Z,17.90
2023-05-14T08:47:31.638Z,18.02
2023-05-14T08:50:12.520Z,18.16
2023-05-14T08:53:23.519Z,18.27
2023-05-14T08:56:03.261Z,18.39
2023-05-14T09:02:34.560Z,18.60
2023-05-14T09:05:09.335Z,18.61
2023-05-14T09:07:41.614Z,18.76
2023-05-14T09:10:18.177Z,18.90
2023-05-14T09:13:02.831Z,18.92
2023-05-14T09:15:41.723Z,18.94
2023-05-14T09:18:21.347Z,18.95
2023-05-14T09:20:53.282Z,18.98
2023-05-14T09:23:29.190Z,19.02
2023-05-14T09:26:05.712Z,19.02
2023-05-14T09:28:36.135Z,19.16
2023-05-14T09:31:06.936Z,19.15
2023-05-14T09:33:37.075Z,19.27
2023-05-14T09:36:06.398Z,19.40
2023-05-14T09:38:38.702Z,19.40
2023-05-14T09:41:07.614Z,19.42
2023-05-14T09:43:45.810Z,19.47
2023-05-14T09:46:30.836Z,19.40
2023-05-14T09:49:04.704Z,19.41
2023-05-14T09:51:45.719Z,19.47
2023-05-14T09:54:34.166Z,19.57
2023-05-14T09:57:08.345Z,19.69
2023-05-14T09:59:58.993Z,19.70
2023-05-14T10:02:52.068Z,19.73
2023-05-14T10:05:34.863Z,19.70
2023-05-14T10:08:15.146Z,19.63
2023-05-14T10:10:47.557Z,19.45
2023-05-14T10:13:22.233Z,19.36
2023-05-14T10:16:07.977Z,19.38
2023-05-14T10:18:57.411Z,19.81
2023-05-14T10:21:50.577Z,19.21
2023-05-14T10:27:23.530Z,19.01
2023-05-14T10:33:12.700Z,18.83
2023-05-14T10:39:05.327Z,18.73
2023-05-14T10:41:36.140Z,18.65
2023-05-14T10:44:10.700Z,18.62
2023-05-14T10:46:39.825Z,18.57
2023-05-14T10:49:39.837Z,18.53
2023-05-14T10:52:13.639Z,18.61
2023-05-14T10:54:50.778Z,18.58
2023-05-14T10:57:23.567Z,18.54
2023-05-14T11:00:00.674Z,18.56
2023-05-14T11:02:37.718Z,18.86
2023-05-14T11:05:13.067Z,18.47
2023-05-14T11:07:49.136Z,18.32
2023-05-14T11:10:23.987Z,18.33
2023-05-14T11:12:58.457Z,18.36
2023-05-14T11:15:50.300Z,18.41
2023-05-14T11:18:30.706Z,18.41
2023-05-14T11:21:05.703Z,18.34
2023-05-14T11:23:34.569Z,18.32
2023-05-14T11:26:04.025Z,18.35
2023-05-14T11:28:32.597Z,18.32
2023-05-14T11:31:02.112Z,18.30
2023-05-14T11:33:33.966Z,18.27
2023-05-14T11:36:06.066Z,18.24
2023-05-14T11:38:36.389Z,18.21
2023-05-14T11:41:08.938Z,18.13
2023-05-14T11:43:38.460Z,18.10
2023-05-14T11:46:12.635Z,17.96
2023-05-14T11:48:42.411Z,17.92
2023-05-14T11:51:15.313Z,17.97
2023-05-14T11:53:49.631Z,17.87
2023-05-14T11:56:34.090Z,17.68
2023-05-14T11:59:03.347Z,17.77
2023-05-14T12:01:44.966Z,17.59
2023-05-14T12:04:37.308Z,17.55
2023-05-14T12:07:24.099Z,17.52
2023-05-14T12:09:58.483Z,17.47
2023-05-14T12:12:54.907Z,17.41
2023-05-14T12:15:37.256Z,17.39
2023-05-14T12:18:27.120Z,17.47
2023-05-14T12:21:30.168Z,17.30
2023-05-14T12:24:34.412Z,17.22
2023-05-14T12:27:19.448Z,17.16
2023-05-14T12:29:48.103Z,17.14
2023-05-14T12:32:20.597Z,17.13
2023-05-14T12:34:55.748Z,17.11
2023-05-14T12:37:29.423Z,17.01
2023-05-14T12:40:10.060Z,17.02
2023-05-14T12:45:42.893Z,16.96
2023-05-14T12:52:17.308Z,16.83
2023-05-14T13:01:57.298Z,16.83
2023-05-14T13:04:27.323Z,16.80
2023-05-14T13:07:02.890Z,16.76
2023-05-14T13:09:43.917Z,16.78
2023-05-14T13:12:19.817Z,16.76
2023-05-14T13:15:06.264Z,16.65
2023-05-14T13:17:37.811Z,16.68
2023-05-14T13:20:10.231Z,16.69
2023-05-14T13:22:39.377Z,16.70
2023-05-14T13:25:09.183Z,16.69
2023-05-14T13:27:39.709Z,16.67
2023-05-14T13:30:10.341Z,16.65
2023-05-14T13:32:45.313Z,16.59
2023-05-14T13:35:14.582Z,16.63
2023-05-14T13:37:48.995Z,16.59
2023-05-14T13:40:19.301Z,16.58
2023-05-14T13:42:49.778Z,16.48
2023-05-14T13:45:18.926Z,16.49
2023-05-14T13:47:49.478Z,16.44
2023-05-14T13:50:18.690Z,16.40
2023-05-14T13:52:50.136Z,16.33
2023-05-14T13:55:20.369Z,16.30
2023-05-14T13:57:52.022Z,16.26
2023-05-14T14:00:21.465Z,16.21
2023-05-14T14:02:54.427Z,16.15
2023-05-14T14:05:28.585Z,16.06
2023-05-14T14:08:17.904Z,16.06
2023-05-14T14:10:55.835Z,16.04
2023-05-14T14:13:29.643Z,16.02
2023-05-14T14:15:58.809Z,15.96
2023-05-14T14:18:29.344Z,15.92
2023-05-14T14:20:58.966Z,15.90
2023-05-14T14:23:29.684Z,15.87
2023-05-14T14:26:00.122Z,15.82
2023-05-14T14:28:32.581Z,15.76
2023-05-14T14:31:06.576Z,15.69
2023-05-14T14:33:35.767Z,15.63
2023-05-14T14:36:06.313Z,15.60
2023-05-14T14:42:07.944Z,15.42
2023-05-14T14:44:44.547Z,15.41
2023-05-14T14:47:13.313Z,15.42
2023-05-14T14:49:49.705Z,15.23
2023-05-14T14:52:32.445Z,15.27
2023-05-14T14:55:07.191Z,15.19
2023-05-14T14:57:36.473Z,15.16
2023-05-14T15:00:15.098Z,15.14
2023-05-14T15:02:55.187Z,15.09
2023-05-14T15:05:26.234Z,15.11
2023-05-14T15:08:08.028Z,14.95
2023-05-14T15:10:38.370Z,15.10
2023-05-14T15:13:36.784Z,14.98
2023-05-14T15:16:24.033Z,15.05
2023-05-14T15:19:27.168Z,14.92
2023-05-14T15:25:14.968Z,14.74
2023-05-14T15:27:47.294Z,14.76
2023-05-14T15:30:23.478Z,14.73
2023-05-14T15:33:46.051Z,14.63
2023-05-14T15:36:53.940Z,14.58
2023-05-14T15:39:26.296Z,14.54
2023-05-14T15:42:12.311Z,14.45
2023-05-14T15:44:48.018Z,14.44
2023-05-14T15:48:08.614Z,14.34
2023-05-14T15:50:52.765Z,14.33
2023-05-14T15:53:46.627Z,14.25
2023-05-14T15:56:41.157Z,14.19
2023-05-14T15:59:33.070Z,14.11
2023-05-14T16:02:16.292Z,14.07
2023-05-14T16:05:05.196Z,14.02
2023-05-14T16:16:07.858Z,13.81
2023-05-14T16:19:55.365Z,13.69
2023-05-14T16:34:09.877Z,13.49
2023-05-14T16:40:46.595Z,13.41
2023-05-14T16:47:15.434Z,13.42
2023-05-14T16:50:10.986Z,13.32
2023-05-14T16:53:29.036Z,13.24
2023-05-14T17:00:19.963Z,13.27
2023-05-14T17:03:02.031Z,13.25
2023-05-14T17:06:16.220Z,13.29
2023-05-14T17:09:16.370Z,13.35
2023-05-14T17:12:09.198Z,13.32
2023-05-14T17:15:00.478Z,13.31
2023-05-14T17:17:57.577Z,13.26
2023-05-14T17:20:59.384Z,13.32
2023-05-14T17:24:14.787Z,13.34
2023-05-14T17:27:20.290Z,13.31
2023-05-14T17:30:20.626Z,13.32
2023-05-14T17:33:14.791Z,13.32
2023-05-14T17:39:52.317Z,13.25
2023-05-14T17:43:22.818Z,13.22
2023-05-14T17:49:56.153Z,13.26
2023-05-14T17:52:52.919Z,13.30
2023-05-14T17:55:23.250Z,13.29
2023-05-14T17:58:02.669Z,13.23
2023-05-14T18:00:48.730Z,13.20
2023-05-14T18:04:29.271Z,13.21
2023-05-14T18:07:13.520Z,13.20
2023-05-14T18:10:30.234Z,13.18
2023-05-14T18:13:21.680Z,13.23
2023-05-14T18:16:43.903Z,13.18
2023-05-14T18:19:30.694Z,13.19
2023-05-14T18:22:05.417Z,13.17
2023-05-14T18:24:40.938Z,13.16
2023-05-14T18:27:32.685Z,13.21
2023-05-14T18:30:33.136Z,13.14
2023-05-14T18:33:54.158Z,13.19
2023-05-14T18:36:28.667Z,13.15
2023-05-14T18:39:01.545Z,13.14
2023-05-14T18:42:02.081Z,13.14
2023-05-14T18:44:46.857Z,13.19
2023-05-14T18:47:33.106Z,13.19
2023-05-14T18:50:27.184Z,13.13
2023-05-14T18:53:00.444Z,13.12
2023-05-14T18:55:35.239Z,13.13
2023-05-14T18:58:15.879Z,13.17
2023-05-14T19:00:57.335Z,13.18
2023-05-14T19:03:48.506Z,13.19
2023-05-14T19:06:33.880Z,13.15
2023-05-14T19:12:42.356Z,13.23
2023-05-14T19:15:41.526Z,13.18
2023-05-14T19:18:44.655Z,13.17
2023-05-14T19:21:45.745Z,13.20
2023-05-14T19:24:36.850Z,13.24
2023-05-14T19:27:36.197Z,13.32
2023-05-14T19:30:23.647Z,13.32
2023-05-14T19:32:53.555Z,13.28
2023-05-14T20:06:10.855Z,13.55
2023-05-14T20:08:30.382Z,13.49
2023-05-14T20:11:06.793Z,13.51
2023-05-14T20:16:37.204Z,13.58
2023-05-14T20:19:21.326Z,13.54
2023-05-14T20:22:12.596Z,13.59
2023-05-14T20:24:42.189Z,13.44
2023-05-14T20:27:20.418Z,13.56
2023-05-14T20:29:54.601Z,13.59
2023-05-14T20:32:25.218Z,13.61
2023-05-14T20:35:02.660Z,13.71
2023-05-14T20:37:54.832Z,13.69
2023-05-14T20:41:01.956Z,13.57
2023-05-14T20:43:35.977Z,13.53
2023-05-14T20:49:34.485Z,13.56
2023-05-14T20:52:10.890Z,13.58
2023-05-14T20:55:01.413Z,13.67
2023-05-14T20:57:31.408Z,13.55
2023-05-14T21:00:00.047Z,13.65
2023-05-14T21:03:35.834Z,13.67
2023-05-14T21:05:23.501Z,13.60
2023-05-14T21:07:52.840Z,13.59
2023-05-14T21:10:26.862Z,13.67
2023-05-14T21:13:12.663Z,13.65
2023-05-14T21:15:43.247Z,13.56
2023-05-14T21:18:19.521Z,13.63
2023-05-14T21:20:57.997Z,13.63
2023-05-14T21:23:34.796Z,13.54
2023-05-14T21:38:10.766Z,13.71
2023-05-14T21:44:18.039Z,13.64
2023-05-14T21:47:09.305Z,13.64
2023-05-14T21:50:19.598Z,13.67
2023-05-14T21:53:11.801Z,13.73
2023-05-14T21:56:05.273Z,13.67
2023-05-14T21:59:04.099Z,13.71
2023-05-14T22:02:06.946Z,13.68
2023-05-14T22:04:40.459Z,13.76
2023-05-14T22:07:11.726Z,13.62
2023-05-14T22:10:06.151Z,13.61
2023-05-14T22:12:45.364Z,13.63
2023-05-14T22:15:22.563Z,13.53
2023-05-14T22:18:12.249Z,13.55
2023-05-14T22:20:46.523Z,13.53
2023-05-14T22:23:15.708Z,13.66
2023-05-14T22:26:04.104Z,13.59
2023-05-14T22:28:57.663Z,13.60
2023-05-14T22:32:04.205Z,13.65
2023-05-14T22:34:40.189Z,13.69
2023-05-14T22:37:24.959Z,13.67
2023-05-14T22:40:13.980Z,13.66
2023-05-14T22:42:52.615Z,13.56
2023-05-14T22:45:25.975Z,13.57
2023-05-14T22:48:14.902Z,13.63
2023-05-14T22:55:33.214Z,13.61
2023-05-14T22:59:10.573Z,13.47
2023-05-14T23:02:26.038Z,13.42
2023-05-14T23:06:01.232Z,13.39
2023-05-14T23:09:04.158Z,13.48
2023-05-14T23:11:43.156Z,13.38
2023-05-14T23:14:15.536Z,13.43
2023-05-14T23:16:44.562Z,13.38
2023-05-14T23:23:31.863Z,13.48
2023-05-14T23:26:40.280Z,13.37
2023-05-14T23:30:09.676Z,13.30
2023-05-14T23:34:04.877Z,13.36
2023-05-14T23:37:16.052Z,13.41
2023-05-14T23:40:00.672Z,13.28
2023-05-14T23:43:27.747Z,13.35
2023-05-14T23:45:59.472Z,13.34
2023-05-14T23:48:43.185Z,13.26
2023-05-14T23:51:15.102Z,13.21
2023-05-14T23:54:23.837Z,13.33
2023-05-14T23:57:26.870Z,13.29
